Terminal Aerodrome Forecast
Issued by NWS Billings, MT

Home | Current Version | Previous Version | Text Only | Print | Product List | Glossary Off
Versions: 1 2 3 4 5 6 7 8 9 10 11 12 13 14 15 16 17 18 19 20 21 22 23 24 25 26 27 28 29 30 31

000
FTUS45 KBYZ 060215 AAA
TAFMLS
TAF AMD
KMLS 060215Z 0602/0624 34012KT P6SM -SHRA OVC040
     FM060600 33010KT P6SM BKN040
     FM061100 01013KT 5SM FU BKN030
     FM061300 31005KT 5SM FU SCT050=

USA.gov is the U.S. government's official web portal to all federal, state and local government web resources and services.